createdAt,value
2023-04-18T00:00:18.514Z,11.08
2023-04-18T00:02:46.120Z,11.01
2023-04-18T00:05:13.830Z,10.90
2023-04-18T00:07:41.484Z,10.81
2023-04-18T00:10:09.009Z,10.71
2023-04-18T00:12:36.786Z,10.66
2023-04-18T00:15:05.974Z,10.66
2023-04-18T00:17:33.526Z,10.55
2023-04-18T00:20:06.884Z,10.52
2023-04-18T00:22:35.106Z,10.59
2023-04-18T00:25:02.590Z,10.57
2023-04-18T00:27:30.363Z,10.56
2023-04-18T00:29:58.008Z,10.50
2023-04-18T00:32:25.592Z,10.57
2023-04-18T00:34:53.223Z,10.55
2023-04-18T00:37:20.697Z,10.58
2023-04-18T00:39:49.673Z,10.56
2023-04-18T00:42:17.121Z,10.48
2023-04-18T00:44:46.389Z,10.40
2023-04-18T00:47:16.404Z,10.38
2023-04-18T00:49:48.157Z,10.33
2023-04-18T00:52:18.488Z,10.21
2023-04-18T00:54:46.808Z,10.25
2023-04-18T00:57:14.665Z,10.26
2023-04-18T00:59:42.629Z,10.21
2023-04-18T01:02:10.519Z,10.20
2023-04-18T01:04:38.725Z,10.20
2023-04-18T01:07:09.871Z,10.24
2023-04-18T01:09:37.568Z,10.29
2023-04-18T01:12:05.494Z,10.29
2023-04-18T01:14:33.068Z,10.26
2023-04-18T01:17:01.564Z,10.30
2023-04-18T01:19:29.256Z,10.30
2023-04-18T01:21:57.126Z,10.33
2023-04-18T01:24:26.781Z,10.32
2023-04-18T01:26:54.194Z,10.24
2023-04-18T01:29:21.705Z,10.22
2023-04-18T01:31:50.497Z,10.20
2023-04-18T01:34:18.866Z,10.18
2023-04-18T01:36:46.785Z,10.21
2023-04-18T01:39:14.791Z,10.11
2023-04-18T01:41:42.653Z,10.12
2023-04-18T01:44:10.593Z,10.17
2023-04-18T01:46:38.900Z,10.15
2023-04-18T01:49:06.422Z,10.11
2023-04-18T01:51:35.591Z,10.09
2023-04-18T01:54:03.080Z,10.04
2023-04-18T01:56:31.997Z,10.01
2023-04-18T01:59:00.436Z,10.03
2023-04-18T02:01:27.986Z,10.03
2023-04-18T02:03:55.674Z,9.99
2023-04-18T02:06:23.349Z,9.95
2023-04-18T02:08:50.805Z,10.01
2023-04-18T02:11:18.423Z,10.02
2023-04-18T02:13:45.970Z,9.97
2023-04-18T02:16:13.829Z,9.93
2023-04-18T02:18:44.176Z,9.89
2023-04-18T02:21:11.968Z,9.90
2023-04-18T02:23:39.491Z,9.92
2023-04-18T02:26:06.958Z,9.95
2023-04-18T02:28:39.067Z,9.96
2023-04-18T02:31:07.419Z,9.80
2023-04-18T02:33:36.145Z,9.67
2023-04-18T02:36:03.894Z,9.62
2023-04-18T02:38:33.254Z,9.53
2023-04-18T02:41:00.876Z,9.49
2023-04-18T02:43:28.393Z,9.46
2023-04-18T02:45:56.197Z,9.49
2023-04-18T02:48:24.088Z,9.53
2023-04-18T02:50:51.916Z,9.47
2023-04-18T02:53:19.468Z,9.45
2023-04-18T02:55:56.039Z,9.42
2023-04-18T02:58:30.412Z,9.38
2023-04-18T03:01:30.644Z,9.43
2023-04-18T03:04:10.696Z,9.36
2023-04-18T03:06:42.788Z,9.40
2023-04-18T03:09:10.545Z,9.38
2023-04-18T03:11:44.339Z,9.45
2023-04-18T03:14:12.224Z,9.43
2023-04-18T03:16:51.776Z,9.41
2023-04-18T03:19:24.125Z,9.34
2023-04-18T03:21:53.710Z,9.35
2023-04-18T03:24:21.210Z,9.34
2023-04-18T03:26:51.980Z,9.27
2023-04-18T03:29:22.677Z,9.20
2023-04-18T03:31:50.279Z,9.25
2023-04-18T03:34:17.825Z,9.27
2023-04-18T03:36:47.281Z,9.26
2023-04-18T03:39:15.812Z,9.26
2023-04-18T03:41:43.427Z,9.33
2023-04-18T03:44:11.563Z,9.36
2023-04-18T03:46:41.624Z,9.24
2023-04-18T03:49:10.785Z,9.15
2023-04-18T03:51:45.311Z,9.14
2023-04-18T03:54:13.036Z,9.15
2023-04-18T03:56:41.486Z,9.14
2023-04-18T03:59:10.534Z,9.13
2023-04-18T04:01:38.251Z,9.09
2023-04-18T04:04:06.073Z,9.09
2023-04-18T04:06:33.970Z,9.13
2023-04-18T04:09:01.864Z,9.15
2023-04-18T04:11:30.183Z,9.21
2023-04-18T04:13:58.167Z,9.26
2023-04-18T04:16:32.066Z,9.20
2023-04-18T04:19:00.140Z,9.30
2023-04-18T04:21:36.570Z,9.24
2023-04-18T04:24:07.017Z,9.27
2023-04-18T04:26:43.106Z,9.28
2023-04-18T04:29:17.948Z,9.24
2023-04-18T04:31:47.637Z,9.25
2023-04-18T04:34:21.920Z,9.20
2023-04-18T04:36:49.527Z,9.20
2023-04-18T04:39:17.548Z,9.22
2023-04-18T04:41:57.947Z,9.24
2023-04-18T04:44:31.438Z,9.26
2023-04-18T04:46:59.820Z,9.34
2023-04-18T04:49:33.620Z,9.43
2023-04-18T04:52:02.791Z,9.64
2023-04-18T04:54:30.747Z,9.73
2023-04-18T04:56:58.270Z,9.78
2023-04-18T04:59:26.563Z,9.89
2023-04-18T05:01:54.549Z,9.84
2023-04-18T05:04:22.126Z,9.94
2023-04-18T05:06:49.774Z,10.00
2023-04-18T05:09:17.215Z,9.92
2023-04-18T05:11:44.803Z,10.00
2023-04-18T05:14:12.726Z,10.10
2023-04-18T05:16:40.596Z,10.24
2023-04-18T05:19:08.052Z,10.21
2023-04-18T05:21:35.969Z,10.20
2023-04-18T05:24:03.641Z,10.24
2023-04-18T05:26:31.784Z,10.27
2023-04-18T05:28:59.253Z,10.32
2023-04-18T05:31:26.847Z,10.29
2023-04-18T05:33:54.440Z,10.26
2023-04-18T05:36:23.624Z,10.23
2023-04-18T05:38:51.725Z,10.23
2023-04-18T05:41:19.326Z,10.20
2023-04-18T05:43:57.831Z,10.37
2023-04-18T05:46:32.688Z,10.31
2023-04-18T05:49:00.211Z,10.43
2023-04-18T05:51:28.669Z,10.47
2023-04-18T05:53:56.271Z,10.57
2023-04-18T05:56:23.735Z,10.53
2023-04-18T05:58:51.444Z,10.52
2023-04-18T06:01:18.930Z,10.53
2023-04-18T06:03:46.775Z,10.52
2023-04-18T06:06:14.619Z,10.63
2023-04-18T06:08:42.313Z,10.75
2023-04-18T06:11:09.838Z,10.80
2023-04-18T06:13:37.636Z,10.85
2023-04-18T06:16:05.982Z,11.01
2023-04-18T06:18:34.133Z,10.97
2023-04-18T06:21:01.590Z,11.30
2023-04-18T06:23:29.219Z,11.53
2023-04-18T06:25:57.701Z,11.59
2023-04-18T06:28:27.095Z,11.68
2023-04-18T06:30:54.546Z,11.60
2023-04-18T06:33:22.015Z,11.75
2023-04-18T06:35:49.521Z,11.68
2023-04-18T06:38:17.189Z,11.72
2023-04-18T06:40:44.683Z,11.67
2023-04-18T06:43:12.291Z,11.72
2023-04-18T06:45:40.580Z,11.78
2023-04-18T06:48:10.747Z,11.81
2023-04-18T06:50:38.639Z,11.79
2023-04-18T06:53:06.153Z,11.75
2023-04-18T06:55:33.711Z,11.73
2023-04-18T06:58:01.281Z,11.70
2023-04-18T07:00:29.426Z,11.57
2023-04-18T07:02:57.100Z,11.57
2023-04-18T07:05:27.201Z,11.30
2023-04-18T07:07:57.109Z,11.44
2023-04-18T07:10:24.785Z,11.48
2023-04-18T07:12:52.276Z,11.56
2023-04-18T07:15:19.680Z,11.76
2023-04-18T07:17:47.259Z,11.98
2023-04-18T07:20:14.840Z,12.10
2023-04-18T07:22:42.544Z,12.11
2023-04-18T07:25:10.239Z,12.10
2023-04-18T07:27:37.892Z,12.23
2023-04-18T07:30:06.327Z,12.24
2023-04-18T07:32:34.713Z,12.48
2023-04-18T07:35:03.460Z,12.50
2023-04-18T07:37:31.571Z,12.66
2023-04-18T07:39:59.288Z,12.66
2023-04-18T07:42:26.861Z,12.80
2023-04-18T07:44:58.894Z,12.85
2023-04-18T07:47:29.930Z,12.97
2023-04-18T07:49:58.382Z,12.91
2023-04-18T07:52:26.005Z,12.97
2023-04-18T07:54:53.422Z,12.76
2023-04-18T07:57:21.114Z,12.86
2023-04-18T07:59:53.780Z,13.03
2023-04-18T08:02:21.743Z,13.08
2023-04-18T08:04:50.117Z,13.10
2023-04-18T08:07:17.891Z,13.27
2023-04-18T08:09:45.988Z,13.17
2023-04-18T08:12:13.549Z,13.30
2023-04-18T08:14:41.758Z,13.35
2023-04-18T08:17:09.308Z,13.37
2023-04-18T08:19:36.862Z,13.59
2023-04-18T08:22:10.359Z,13.61
2023-04-18T08:24:38.710Z,13.66
2023-04-18T08:27:06.575Z,13.73
2023-04-18T08:29:34.100Z,13.92
2023-04-18T08:32:01.694Z,14.00
2023-04-18T08:34:29.813Z,13.84
2023-04-18T08:36:57.294Z,14.14
2023-04-18T08:39:25.403Z,14.13
2023-04-18T08:42:01.768Z,14.00
2023-04-18T08:44:29.602Z,13.95
2023-04-18T08:46:57.729Z,14.10
2023-04-18T08:49:25.362Z,14.31
2023-04-18T08:51:53.190Z,14.43
2023-04-18T08:54:22.554Z,14.36
2023-04-18T08:57:07.455Z,14.46
2023-04-18T08:59:37.942Z,14.39
2023-04-18T09:02:08.947Z,14.50
2023-04-18T09:04:49.245Z,14.71
2023-04-18T09:07:17.530Z,14.77
2023-04-18T09:09:50.529Z,14.89
2023-04-18T09:12:22.532Z,15.04
2023-04-18T09:14:57.813Z,15.10
2023-04-18T09:17:43.593Z,14.87
2023-04-18T09:20:12.567Z,14.82
2023-04-18T09:22:54.522Z,14.76
2023-04-18T09:25:44.763Z,14.85
2023-04-18T09:28:28.061Z,14.73
2023-04-18T09:31:09.441Z,14.96
2023-04-18T09:33:37.991Z,15.13
2023-04-18T09:36:27.267Z,15.24
2023-04-18T09:38:57.019Z,15.15
2023-04-18T09:41:24.886Z,15.34
2023-04-18T09:44:13.554Z,15.26
2023-04-18T09:46:46.668Z,15.44
2023-04-18T09:49:16.938Z,15.60
2023-04-18T09:51:46.293Z,15.51
2023-04-18T09:54:17.389Z,15.48
2023-04-18T09:56:47.302Z,15.67
2023-04-18T09:59:21.461Z,15.71
2023-04-18T10:01:49.846Z,15.73
2023-04-18T10:04:19.185Z,15.80
2023-04-18T10:06:47.137Z,15.54
2023-04-18T10:09:16.098Z,15.49
2023-04-18T10:11:44.663Z,15.75
2023-04-18T10:14:15.935Z,15.85
2023-04-18T10:16:49.894Z,15.80
2023-04-18T10:19:26.212Z,16.07
2023-04-18T10:21:57.672Z,16.18
2023-04-18T10:24:53.623Z,16.12
2023-04-18T10:27:49.206Z,16.13
2023-04-18T10:30:17.556Z,16.46
2023-04-18T10:32:48.335Z,16.31
2023-04-18T10:35:15.988Z,16.31
2023-04-18T10:37:59.107Z,16.46
2023-04-18T10:40:34.280Z,16.47
2023-04-18T10:43:02.026Z,16.48
2023-04-18T10:45:33.569Z,16.13
2023-04-18T10:48:29.620Z,16.26
2023-04-18T10:51:13.348Z,16.34
2023-04-18T10:53:48.297Z,16.29
2023-04-18T10:56:16.120Z,16.29
2023-04-18T10:58:49.746Z,16.53
2023-04-18T11:01:32.476Z,16.61
2023-04-18T11:04:01.385Z,16.39
2023-04-18T11:06:31.286Z,16.11
2023-04-18T11:09:12.515Z,15.91
2023-04-18T11:11:41.615Z,15.76
2023-04-18T11:14:09.400Z,15.72
2023-04-18T11:16:37.492Z,15.81
2023-04-18T11:19:21.914Z,15.96
2023-04-18T11:21:51.321Z,16.07
2023-04-18T11:24:23.726Z,16.28
2023-04-18T11:26:55.821Z,16.56
2023-04-18T11:29:23.774Z,17.02
2023-04-18T11:31:55.848Z,16.80
2023-04-18T11:34:31.907Z,16.76
2023-04-18T11:37:00.320Z,16.47
2023-04-18T11:39:28.007Z,16.26
2023-04-18T11:41:57.214Z,16.59
2023-04-18T11:44:25.216Z,16.68
2023-04-18T11:46:53.663Z,16.75
2023-04-18T11:49:28.916Z,16.94
2023-04-18T11:51:56.892Z,16.95
2023-04-18T11:54:44.465Z,16.93
2023-04-18T11:57:23.000Z,16.90
2023-04-18T11:59:52.026Z,16.97
2023-04-18T12:02:21.157Z,17.07
2023-04-18T12:04:57.387Z,17.06
2023-04-18T12:07:40.401Z,16.63
2023-04-18T12:10:08.252Z,16.44
2023-04-18T12:12:36.728Z,16.40
2023-04-18T12:15:09.445Z,16.39
2023-04-18T12:17:38.301Z,16.64
2023-04-18T12:20:10.129Z,16.65
2023-04-18T12:22:43.922Z,16.79
2023-04-18T12:25:27.381Z,16.82
2023-04-18T12:28:00.679Z,16.94
2023-04-18T12:30:31.095Z,16.74
2023-04-18T12:33:04.107Z,16.61
2023-04-18T12:35:32.440Z,16.70
2023-04-18T12:38:01.316Z,16.91
2023-04-18T12:40:30.426Z,16.92
2023-04-18T12:42:58.059Z,17.05
2023-04-18T12:45:25.823Z,16.98
2023-04-18T12:47:53.814Z,16.80
2023-04-18T12:50:25.666Z,16.75
2023-04-18T12:52:54.897Z,16.89
2023-04-18T12:55:22.960Z,17.00
2023-04-18T12:57:54.949Z,17.01
2023-04-18T13:00:24.417Z,17.15
2023-04-18T13:02:52.899Z,16.93
2023-04-18T13:05:22.474Z,16.87
2023-04-18T13:07:56.305Z,16.94
2023-04-18T13:10:29.645Z,17.06
2023-04-18T13:12:57.197Z,17.05
2023-04-18T13:15:24.881Z,16.94
2023-04-18T13:17:52.464Z,17.08
2023-04-18T13:20:20.029Z,17.17
2023-04-18T13:22:47.522Z,17.08
2023-04-18T13:25:14.956Z,17.02
2023-04-18T13:27:42.794Z,16.83
2023-04-18T13:30:11.324Z,16.80
2023-04-18T13:32:40.522Z,16.49
2023-04-18T13:35:09.706Z,16.59
2023-04-18T13:37:38.622Z,16.84
2023-04-18T13:40:07.073Z,16.86
2023-04-18T13:42:36.488Z,16.39
2023-04-18T13:45:04.339Z,16.44
2023-04-18T13:47:32.867Z,16.52
2023-04-18T13:50:00.398Z,16.67
2023-04-18T13:52:27.879Z,16.62
2023-04-18T13:54:55.703Z,16.68
2023-04-18T13:57:23.469Z,16.71
2023-04-18T13:59:50.979Z,16.76
2023-04-18T14:02:18.503Z,16.72
2023-04-18T14:04:46.634Z,16.66
2023-04-18T14:07:14.223Z,16.58
2023-04-18T14:09:41.634Z,16.59
2023-04-18T14:12:09.169Z,16.58
2023-04-18T14:14:37.236Z,16.63
2023-04-18T14:17:04.924Z,16.61
2023-04-18T14:19:32.397Z,16.58
2023-04-18T14:21:59.874Z,16.51
2023-04-18T14:24:27.365Z,16.53
2023-04-18T14:26:54.935Z,16.34
2023-04-18T14:29:22.560Z,16.35
2023-04-18T14:31:50.363Z,16.31
2023-04-18T14:34:18.058Z,16.24
2023-04-18T14:36:45.663Z,16.20
2023-04-18T14:39:13.373Z,16.08
2023-04-18T14:41:41.114Z,16.03
2023-04-18T14:44:08.561Z,16.13
2023-04-18T14:46:36.555Z,16.11
2023-04-18T14:49:04.094Z,16.17
2023-04-18T14:51:32.230Z,16.21
2023-04-18T14:53:59.897Z,16.06
2023-04-18T14:56:27.400Z,15.97
2023-04-18T14:58:54.960Z,15.92
2023-04-18T15:01:22.606Z,15.84
2023-04-18T15:03:51.418Z,15.92
2023-04-18T15:06:19.121Z,16.06
2023-04-18T15:08:47.240Z,16.12
2023-04-18T15:11:14.906Z,16.03
2023-04-18T15:13:42.672Z,16.21
2023-04-18T15:16:11.342Z,16.01
2023-04-18T15:18:39.004Z,15.96
2023-04-18T15:21:06.511Z,15.81
2023-04-18T15:23:34.233Z,15.74
2023-04-18T15:26:01.779Z,15.65
2023-04-18T15:28:29.588Z,15.58
2023-04-18T15:30:57.100Z,15.45
2023-04-18T15:33:25.277Z,15.30
2023-04-18T15:35:52.784Z,15.26
2023-04-18T15:38:20.341Z,15.29
2023-04-18T15:40:47.949Z,15.26
2023-04-18T15:43:17.301Z,15.22
2023-04-18T15:45:45.031Z,15.12
2023-04-18T15:48:13.257Z,15.05
2023-04-18T15:50:42.518Z,15.05
2023-04-18T15:53:10.177Z,15.04
2023-04-18T15:55:37.986Z,15.07
2023-04-18T15:58:06.615Z,15.04
2023-04-18T16:00:34.273Z,15.01
2023-04-18T16:03:01.951Z,15.08
2023-04-18T16:05:30.862Z,15.07
2023-04-18T16:07:59.497Z,15.05
2023-04-18T16:10:27.010Z,15.05
2023-04-18T16:12:54.749Z,15.02
2023-04-18T16:15:22.159Z,15.04
2023-04-18T16:17:49.674Z,14.96
2023-04-18T16:20:17.266Z,15.05
2023-04-18T16:22:44.846Z,15.00
2023-04-18T16:25:12.574Z,14.99
2023-04-18T16:27:42.647Z,14.90
2023-04-18T16:30:10.375Z,14.91
2023-04-18T16:32:39.020Z,14.93
2023-04-18T16:35:10.235Z,14.88
2023-04-18T16:37:38.690Z,14.74
2023-04-18T16:40:07.631Z,14.66
2023-04-18T16:42:35.839Z,14.63
2023-04-18T16:45:04.143Z,14.60
2023-04-18T16:47:32.475Z,14.61
2023-04-18T16:50:00.050Z,14.63
2023-04-18T16:52:27.665Z,14.50
2023-04-18T16:54:55.101Z,14.48
2023-04-18T16:57:22.715Z,14.54
2023-04-18T16:59:50.395Z,14.51
2023-04-18T17:02:17.991Z,14.46
2023-04-18T17:04:46.130Z,14.41
2023-04-18T17:07:13.663Z,14.40
2023-04-18T17:09:41.690Z,14.44
2023-04-18T17:12:09.383Z,14.39
2023-04-18T17:14:37.361Z,14.39
2023-04-18T17:17:04.866Z,14.32
2023-04-18T17:19:32.598Z,14.27
2023-04-18T17:22:00.393Z,14.18
2023-04-18T17:24:27.800Z,14.15
2023-04-18T17:26:57.719Z,14.10
2023-04-18T17:29:26.599Z,14.07
2023-04-18T17:31:54.265Z,14.13
2023-04-18T17:34:21.946Z,14.13
2023-04-18T17:36:49.628Z,14.03
2023-04-18T17:39:17.713Z,13.99
2023-04-18T17:41:45.295Z,13.92
2023-04-18T17:44:12.756Z,13.94
2023-04-18T17:46:40.369Z,13.96
2023-04-18T17:49:07.857Z,13.94
2023-04-18T17:51:35.340Z,13.95
2023-04-18T17:54:03.039Z,13.87
2023-04-18T17:56:31.597Z,13.83
2023-04-18T17:58:59.059Z,13.77
2023-04-18T18:01:28.824Z,13.74
2023-04-18T18:03:57.029Z,13.70
2023-04-18T18:06:24.552Z,13.68
2023-04-18T18:08:52.241Z,13.65
2023-04-18T18:11:19.815Z,13.67
2023-04-18T18:13:47.384Z,13.67
2023-04-18T18:16:14.982Z,13.63
2023-04-18T18:18:42.689Z,13.61
2023-04-18T18:21:11.504Z,13.57
2023-04-18T18:23:39.056Z,13.61
2023-04-18T18:26:07.073Z,13.57
2023-04-18T18:28:34.758Z,13.53
2023-04-18T18:31:02.644Z,13.50
2023-04-18T18:33:31.547Z,13.51
2023-04-18T18:35:59.772Z,13.45
2023-04-18T18:38:27.292Z,13.42
2023-04-18T18:40:54.790Z,13.38
2023-04-18T18:43:26.286Z,13.39
2023-04-18T18:45:53.863Z,13.34
2023-04-18T18:48:21.665Z,13.31
2023-04-18T18:50:49.124Z,13.31
2023-04-18T18:53:17.968Z,13.30
2023-04-18T18:55:45.742Z,13.30
2023-04-18T18:58:13.259Z,13.29
2023-04-18T19:00:40.758Z,13.32
2023-04-18T19:03:08.451Z,13.26
2023-04-18T19:05:36.549Z,13.28
2023-04-18T19:08:05.886Z,13.20
2023-04-18T19:10:33.561Z,13.08
2023-04-18T19:13:01.073Z,13.10
2023-04-18T19:15:28.669Z,13.11
2023-04-18T19:17:56.612Z,13.09
2023-04-18T19:20:24.307Z,13.09
2023-04-18T19:22:51.868Z,13.10
2023-04-18T19:25:19.353Z,13.04
2023-04-18T19:27:46.917Z,13.01
2023-04-18T19:30:14.490Z,12.96
2023-04-18T19:32:42.392Z,12.96
2023-04-18T19:35:13.186Z,12.98
2023-04-18T19:37:40.794Z,12.94
2023-04-18T19:40:08.791Z,12.98
2023-04-18T19:42:36.388Z,12.94
2023-04-18T19:45:05.219Z,12.88
2023-04-18T19:47:34.042Z,12.70
2023-04-18T19:50:01.650Z,12.69
2023-04-18T19:52:29.500Z,12.65
2023-04-18T19:54:56.952Z,12.60
2023-04-18T19:57:26.001Z,12.60
2023-04-18T19:59:53.467Z,12.55
2023-04-18T20:02:21.061Z,12.46
2023-04-18T20:04:48.762Z,12.48
2023-04-18T20:07:16.361Z,12.46
2023-04-18T20:09:43.849Z,12.38
2023-04-18T20:12:11.534Z,12.41
2023-04-18T20:14:39.018Z,12.40
2023-04-18T20:17:06.852Z,12.25
2023-04-18T20:19:34.305Z,12.12
2023-04-18T20:22:02.130Z,12.03
2023-04-18T20:24:31.801Z,11.99
2023-04-18T20:26:59.759Z,11.87
2023-04-18T20:29:28.080Z,11.62
2023-04-18T20:31:55.898Z,11.66
2023-04-18T20:34:23.647Z,11.84
2023-04-18T20:36:52.554Z,11.67
2023-04-18T20:39:20.218Z,11.63
2023-04-18T20:41:51.340Z,11.61
2023-04-18T20:44:22.287Z,11.79
2023-04-18T20:46:49.936Z,11.65
2023-04-18T20:49:17.603Z,11.67
2023-04-18T20:51:45.503Z,11.74
2023-04-18T20:54:13.407Z,11.73
2023-04-18T20:56:41.155Z,11.64
2023-04-18T20:59:08.753Z,11.64
2023-04-18T21:01:37.155Z,11.61
2023-04-18T21:04:05.102Z,11.54
2023-04-18T21:06:32.937Z,11.44
2023-04-18T21:09:00.521Z,11.51
2023-04-18T21:11:28.207Z,11.45
2023-04-18T21:13:55.639Z,11.39
2023-04-18T21:16:24.186Z,11.40
2023-04-18T21:18:53.157Z,11.40
2023-04-18T21:21:20.717Z,11.30
2023-04-18T21:23:48.117Z,11.26
2023-04-18T21:26:15.890Z,11.27
2023-04-18T21:29:00.790Z,11.35
2023-04-18T21:31:30.727Z,11.41
2023-04-18T21:34:00.497Z,11.54
2023-04-18T21:36:29.534Z,11.59
2023-04-18T21:38:58.595Z,11.65
2023-04-18T21:41:26.305Z,11.67
2023-04-18T21:43:53.870Z,11.70
2023-04-18T21:46:21.509Z,11.69
2023-04-18T21:48:49.139Z,11.69
2023-04-18T21:51:17.452Z,11.63
2023-04-18T21:53:44.990Z,11.65
2023-04-18T21:56:12.683Z,11.68
2023-04-18T21:58:40.235Z,11.65
2023-04-18T22:01:07.813Z,11.58
2023-04-18T22:03:36.395Z,11.61
2023-04-18T22:06:04.535Z,11.67
2023-04-18T22:08:32.529Z,11.52
2023-04-18T22:11:00.382Z,11.51
2023-04-18T22:13:30.163Z,11.54
2023-04-18T22:15:58.385Z,11.48
2023-04-18T22:18:25.993Z,11.42
2023-04-18T22:20:53.894Z,11.49
2023-04-18T22:23:21.433Z,11.47
2023-04-18T22:25:48.998Z,11.49
2023-04-18T22:28:16.432Z,11.49
2023-04-18T22:30:43.949Z,11.38
2023-04-18T22:33:11.448Z,11.33
2023-04-18T22:35:38.863Z,11.31
2023-04-18T22:38:06.562Z,11.19
2023-04-18T22:40:34.115Z,11.12
2023-04-18T22:43:01.700Z,11.08
2023-04-18T22:45:29.237Z,11.10
2023-04-18T22:47:57.087Z,11.13
2023-04-18T22:50:24.574Z,11.12
2023-04-18T22:52:52.258Z,11.10
2023-04-18T22:55:20.262Z,11.12
2023-04-18T22:57:47.668Z,11.06
2023-04-18T23:00:15.446Z,11.06
2023-04-18T23:02:43.076Z,11.00
2023-04-18T23:05:11.627Z,10.99
2023-04-18T23:07:39.187Z,11.01
2023-04-18T23:10:07.370Z,11.00
2023-04-18T23:12:35.455Z,11.08
2023-04-18T23:15:03.230Z,11.12
2023-04-18T23:17:30.962Z,11.07
2023-04-18T23:19:58.443Z,11.10
2023-04-18T23:22:25.999Z,11.06
2023-04-18T23:24:53.462Z,11.12
2023-04-18T23:27:21.025Z,11.12
2023-04-18T23:29:51.615Z,11.14
2023-04-18T23:32:19.182Z,11.16
2023-04-18T23:34:46.909Z,11.19
2023-04-18T23:37:14.339Z,11.19
2023-04-18T23:39:41.763Z,11.14
2023-04-18T23:42:09.596Z,11.12
2023-04-18T23:44:37.292Z,11.11
2023-04-18T23:47:04.838Z,10.98
2023-04-18T23:49:32.554Z,10.98
2023-04-18T23:52:00.264Z,10.95
2023-04-18T23:54:27.733Z,10.94
2023-04-18T23:56:55.140Z,11.05
2023-04-18T23:59:22.759Z,11.03
